Time;durP1;ratioP1;P1;durP2;ratioP2;P2;SDS_P1;SDS_P2;PMS_P1;PMS_P2;Temp;Humidity;BMP_temperature;BMP_pressure;BME280_temperature;BME280_humidity;BME280_pressure;Samples;Min_cycle;Max_cycle;Signal;HPM_P1;HPM_P2
2022/10/04 00:01:59;;;;;;;7.70;7.00;;;26.40;80.40;;;;;;5140320;27;21050;-69
2022/10/04 00:04:33;;;;;;;8.97;8.07;;;26.20;83.80;;;;;;5131904;27;20466;-68
2022/10/04 00:07:15;;;;;;;8.97;8.17;;;26.00;85.90;;;;;;5136160;28;20490;-66
2022/10/04 00:09:49;;;;;;;7.63;6.87;;;26.00;84.00;;;;;;5116751;28;20498;-65
2022/10/04 00:12:25;;;;;;;8.37;7.53;;;25.90;84.20;;;;;;5126074;28;20457;-66
2022/10/04 00:14:58;;;;;;;8.23;7.40;;;25.80;85.20;;;;;;5113213;28;20879;-67
2022/10/04 00:17:34;;;;;;;11.23;7.60;;;25.70;85.50;;;;;;5132026;27;20460;-67
2022/10/04 00:20:28;;;;;;;6.90;6.30;;;25.70;85.10;;;;;;5133933;27;20486;-67
2022/10/04 00:23:29;;;;;;;8.63;7.10;;;25.60;87.40;;;;;;5132982;28;20766;-67
2022/10/04 00:26:01;;;;;;;8.13;7.43;;;25.50;87.40;;;;;;5109343;28;20506;-68
2022/10/04 00:28:45;;;;;;;8.57;7.37;;;25.60;85.40;;;;;;5137312;27;20524;-67
2022/10/04 00:31:22;;;;;;;7.67;6.93;;;25.80;83.60;;;;;;5140464;28;20991;-67
2022/10/04 00:33:55;;;;;;;8.10;7.33;;;25.80;83.90;;;;;;5117238;28;20474;-66
2022/10/04 00:36:48;;;;;;;7.60;6.80;;;25.70;87.00;;;;;;5122076;28;20481;-68
2022/10/04 00:39:42;;;;;;;8.73;7.00;;;25.60;87.10;;;;;;5124336;28;20514;-67
2022/10/04 00:42:48;;;;;;;7.87;7.07;;;25.50;88.90;;;;;;5121333;28;20505;-71
2022/10/04 00:45:31;;;;;;;8.07;7.00;;;25.40;90.00;;;;;;5113935;28;20469;-67
2022/10/04 00:48:29;;;;;;;8.23;7.43;;;25.30;89.80;;;;;;5128628;28;20572;-68
2022/10/04 00:51:06;;;;;;;7.47;6.83;;;25.20;91.60;;;;;;5128667;28;20473;-68
2022/10/04 00:54:02;;;;;;;7.37;6.77;;;25.00;92.30;;;;;;5131939;28;20447;-67
2022/10/04 00:56:41;;;;;;;7.57;6.93;;;24.90;92.80;;;;;;5109038;28;20874;-68
2022/10/04 00:59:24;;;;;;;12.37;11.17;;;24.70;93.90;;;;;;5123212;28;20452;-67
2022/10/04 01:01:58;;;;;;;11.37;9.83;;;24.70;92.60;;;;;;5127810;28;20461;-67
2022/10/04 01:04:38;;;;;;;9.60;8.53;;;24.60;93.60;;;;;;5119557;27;20547;-67
2022/10/04 01:07:10;;;;;;;7.60;6.90;;;24.50;93.60;;;;;;5120707;28;20540;-67
2022/10/04 01:09:48;;;;;;;7.77;7.07;;;24.50;93.60;;;;;;5128425;28;20467;-69
2022/10/04 01:12:32;;;;;;;7.27;6.57;;;24.50;93.20;;;;;;5118973;27;20466;-69
2022/10/04 01:15:09;;;;;;;7.70;7.00;;;24.60;93.50;;;;;;5137608;27;20519;-69
2022/10/04 01:17:40;;;;;;;7.03;6.33;;;24.50;93.60;;;;;;5128453;27;20438;-67
2022/10/04 01:20:33;;;;;;;8.40;7.47;;;24.40;93.90;;;;;;5142294;27;20468;-67
2022/10/04 01:23:06;;;;;;;11.77;7.47;;;24.30;95.00;;;;;;5133226;27;20475;-68
2022/10/04 01:25:50;;;;;;;7.27;6.57;;;24.00;95.60;;;;;;5128439;27;20491;-67
2022/10/04 01:28:21;;;;;;;7.87;7.07;;;23.80;97.40;;;;;;5133997;27;20507;-67
2022/10/04 01:30:52;;;;;;;12.03;8.77;;;23.60;98.10;;;;;;5129808;27;20482;-65
2022/10/04 01:33:23;;;;;;;9.37;7.87;;;23.40;98.60;;;;;;5133185;27;20454;-67
2022/10/04 01:35:55;;;;;;;8.10;7.30;;;23.20;99.90;;;;;;5140618;27;20556;-66
2022/10/04 01:38:28;;;;;;;8.53;7.67;;;23.10;99.90;;;;;;5125733;27;20462;-67
2022/10/04 01:41:03;;;;;;;8.23;7.53;;;22.90;99.90;;;;;;5134559;27;20482;-66
2022/10/04 01:43:39;;;;;;;9.03;7.83;;;22.80;99.90;;;;;;5115339;27;20462;-66
2022/10/04 01:46:14;;;;;;;8.50;7.00;;;22.60;99.90;;;;;;5131662;27;20467;-67
2022/10/04 01:48:46;;;;;;;9.40;7.70;;;22.50;99.90;;;;;;5122965;27;20486;-67
2022/10/04 01:51:25;;;;;;;10.57;7.93;;;22.40;99.90;;;;;;5138490;27;20561;-67
2022/10/04 01:54:01;;;;;;;9.00;8.10;;;22.30;99.90;;;;;;5122682;27;20514;-68
2022/10/04 01:56:39;;;;;;;9.47;7.90;;;22.10;99.90;;;;;;5134850;27;20848;-68
2022/10/04 01:59:18;;;;;;;7.90;7.10;;;22.00;99.90;;;;;;5143980;27;20460;-65
2022/10/04 02:01:54;;;;;;;11.50;8.37;;;21.90;99.90;;;;;;5127978;27;20505;-66
2022/10/04 02:04:29;;;;;;;8.70;7.80;;;21.80;99.90;;;;;;5136442;27;20470;-67
2022/10/04 02:07:04;;;;;;;9.20;8.30;;;21.70;99.90;;;;;;5146080;27;20492;-66
2022/10/04 02:09:41;;;;;;;9.00;8.10;;;21.60;99.90;;;;;;5144178;27;20493;-66
2022/10/04 02:12:15;;;;;;;9.27;8.37;;;21.40;99.90;;;;;;5110194;27;20475;-67
2022/10/04 02:14:51;;;;;;;9.63;8.53;;;21.40;99.90;;;;;;5119022;27;20446;-69
2022/10/04 02:17:27;;;;;;;9.00;7.50;;;21.30;99.90;;;;;;5124455;27;21041;-67
2022/10/04 02:20:00;;;;;;;8.53;7.77;;;21.20;99.90;;;;;;5122055;27;20464;-67
2022/10/04 02:22:32;;;;;;;10.20;8.10;;;21.20;99.90;;;;;;5129596;27;20464;-70
2022/10/04 02:25:05;;;;;;;9.90;8.90;;;21.20;99.90;;;;;;5141847;27;20468;-69
2022/10/04 02:27:35;;;;;;;9.90;8.90;;;21.10;99.90;;;;;;5126329;27;20480;-70
2022/10/04 02:30:08;;;;;;;10.63;9.70;;;21.10;99.90;;;;;;5134705;27;20985;-70
2022/10/04 02:32:59;;;;;;;13.40;10.47;;;21.00;99.90;;;;;;5133328;27;20457;-68
2022/10/04 02:35:34;;;;;;;11.97;10.33;;;20.90;99.90;;;;;;5119206;27;20519;-70
2022/10/04 02:38:11;;;;;;;12.23;10.50;;;20.80;99.90;;;;;;5108350;27;20516;-70
2022/10/04 02:40:49;;;;;;;10.90;9.80;;;20.80;99.90;;;;;;5142809;27;20448;-70
2022/10/04 02:43:25;;;;;;;12.50;11.30;;;20.70;99.90;;;;;;5141313;27;20495;-70
2022/10/04 02:46:03;;;;;;;11.63;10.40;;;20.70;99.90;;;;;;5125094;27;20617;-69
2022/10/04 02:48:42;;;;;;;13.47;11.17;;;20.70;99.90;;;;;;5121616;27;20961;-70
2022/10/04 02:51:24;;;;;;;15.83;10.97;;;20.60;99.90;;;;;;5126569;27;20519;-69
2022/10/04 02:54:02;;;;;;;12.23;10.17;;;20.50;99.90;;;;;;5122924;27;20486;-70
2022/10/04 02:56:36;;;;;;;12.90;11.03;;;20.40;99.90;;;;;;5144659;27;20445;-69
2022/10/04 02:59:08;;;;;;;12.77;11.33;;;20.40;99.90;;;;;;5114535;27;20483;-70
2022/10/04 03:01:50;;;;;;;13.63;12.23;;;20.30;99.90;;;;;;5131104;27;20448;-72
2022/10/04 03:04:23;;;;;;;12.67;11.33;;;20.20;99.90;;;;;;5124058;27;20509;-69
2022/10/04 03:06:55;;;;;;;14.40;11.83;;;20.20;99.90;;;;;;5121131;27;20511;-69
2022/10/04 03:09:27;;;;;;;13.73;11.77;;;20.10;99.90;;;;;;5130638;27;20523;-69
2022/10/04 03:12:01;;;;;;;13.90;11.30;;;20.00;99.90;;;;;;5134587;27;20509;-69
2022/10/04 03:14:33;;;;;;;15.80;12.13;;;20.00;99.90;;;;;;5144622;27;20536;-69
2022/10/04 03:17:06;;;;;;;12.47;10.80;;;19.90;99.90;;;;;;5144776;27;20521;-69
2022/10/04 03:19:37;;;;;;;13.43;12.00;;;19.90;99.90;;;;;;5144529;27;21017;-68
2022/10/04 03:22:11;;;;;;;12.77;10.57;;;19.70;99.90;;;;;;5132929;27;20493;-69
2022/10/04 03:24:48;;;;;;;14.40;12.00;;;19.70;99.90;;;;;;5124180;27;20497;-66
2022/10/04 03:27:23;;;;;;;13.43;12.13;;;19.60;99.90;;;;;;5127257;27;20476;-67
2022/10/04 03:29:58;;;;;;;13.10;11.50;;;19.60;99.90;;;;;;5131144;27;20460;-66
2022/10/04 03:32:31;;;;;;;16.00;12.13;;;19.60;99.90;;;;;;5142935;27;20430;-68
2022/10/04 03:35:03;;;;;;;14.87;12.50;;;19.60;99.90;;;;;;5142010;27;20862;-66
2022/10/04 03:37:37;;;;;;;11.80;10.60;;;19.50;99.90;;;;;;5144485;27;20439;-65
2022/10/04 03:40:11;;;;;;;13.53;11.53;;;19.40;99.90;;;;;;5126427;27;20478;-67
2022/10/04 03:42:45;;;;;;;13.03;11.53;;;19.40;99.90;;;;;;5135161;27;20435;-66
2022/10/04 03:45:19;;;;;;;14.90;11.23;;;19.30;99.90;;;;;;5117867;27;20429;-68
2022/10/04 03:47:53;;;;;;;13.77;11.53;;;19.30;99.90;;;;;;5144442;27;20474;-68
2022/10/04 03:50:27;;;;;;;12.47;11.27;;;19.20;99.90;;;;;;5138330;27;20422;-68
2022/10/04 03:53:03;;;;;;;13.40;11.80;;;19.20;99.90;;;;;;5133600;27;20766;-67
2022/10/04 03:55:37;;;;;;;13.13;11.10;;;19.20;99.90;;;;;;5130604;27;20504;-68
2022/10/04 03:58:12;;;;;;;15.17;12.50;;;19.10;99.90;;;;;;5124062;27;20431;-67
2022/10/04 04:00:52;;;;;;;13.50;11.03;;;19.00;99.90;;;;;;5135541;27;20448;-69
2022/10/04 04:03:26;;;;;;;15.20;11.97;;;18.90;99.90;;;;;;5127400;27;20431;-70
2022/10/04 04:06:00;;;;;;;13.70;11.60;;;19.00;99.90;;;;;;5134221;27;20454;-68
2022/10/04 04:08:35;;;;;;;14.43;11.87;;;18.90;99.90;;;;;;5137772;28;20524;-69
2022/10/04 04:11:07;;;;;;;15.37;12.50;;;18.90;99.90;;;;;;5120210;28;20522;-69
2022/10/04 04:13:46;;;;;;;13.50;12.10;;;18.90;99.90;;;;;;5123283;28;20458;-69
2022/10/04 04:16:19;;;;;;;15.37;12.40;;;18.80;99.90;;;;;;5127916;27;20429;-70
2022/10/04 04:18:53;;;;;;;13.43;12.00;;;18.80;99.90;;;;;;5133723;28;20480;-69
2022/10/04 04:21:26;;;;;;;17.13;12.77;;;18.70;99.90;;;;;;5125893;28;20505;-71
2022/10/04 04:23:59;;;;;;;12.83;11.63;;;18.70;99.90;;;;;;5140520;28;20477;-71
2022/10/04 04:26:38;;;;;;;14.57;11.53;;;18.70;99.90;;;;;;5140473;27;20491;-70
2022/10/04 04:29:19;;;;;;;12.87;11.50;;;18.50;99.90;;;;;;5131222;27;20475;-72
2022/10/04 04:31:56;;;;;;;12.17;10.93;;;18.50;99.90;;;;;;5130253;28;20776;-73
2022/10/04 04:34:30;;;;;;;12.90;11.53;;;18.50;99.90;;;;;;5115694;28;20443;-73
2022/10/04 04:37:02;;;;;;;12.43;10.97;;;18.50;99.90;;;;;;5126341;28;20443;-73
2022/10/04 04:39:40;;;;;;;12.97;11.47;;;18.40;99.90;;;;;;5141006;27;20785;-72
2022/10/04 04:42:17;;;;;;;11.23;9.93;;;18.40;99.90;;;;;;5123098;28;20509;-71
2022/10/04 04:44:51;;;;;;;13.17;10.77;;;18.40;99.90;;;;;;5135010;28;20511;-71
2022/10/04 04:47:32;;;;;;;13.13;10.77;;;18.30;99.90;;;;;;5136717;27;20455;-73
2022/10/04 04:50:07;;;;;;;12.20;10.90;;;18.30;99.90;;;;;;5136839;27;20432;-71
2022/10/04 04:52:39;;;;;;;12.07;10.80;;;18.30;99.90;;;;;;5128921;27;20467;-71
2022/10/04 04:55:19;;;;;;;12.80;11.33;;;18.30;99.90;;;;;;5137265;27;20460;-71
2022/10/04 04:57:54;;;;;;;12.03;10.80;;;18.20;99.90;;;;;;5142116;27;20420;-71
2022/10/04 05:00:33;;;;;;;12.00;10.03;;;18.20;99.90;;;;;;5123122;27;20446;-71
2022/10/04 05:03:06;;;;;;;12.67;10.53;;;18.10;99.90;;;;;;5130674;27;20509;-72
2022/10/04 05:05:37;;;;;;;10.77;9.67;;;18.10;99.90;;;;;;5135217;27;20759;-69
2022/10/04 05:08:16;;;;;;;14.73;9.40;;;18.00;99.90;;;;;;5139026;27;20561;-68
2022/10/04 05:10:54;;;;;;;13.03;10.47;;;18.10;99.90;;;;;;5141843;27;20459;-71
2022/10/04 05:13:29;;;;;;;9.30;8.40;;;18.00;99.90;;;;;;5116582;27;20453;-69
2022/10/04 05:16:02;;;;;;;9.30;8.27;;;18.00;99.90;;;;;;5138600;27;20467;-68
2022/10/04 05:18:34;;;;;;;11.80;9.97;;;18.00;99.90;;;;;;5143547;27;20435;-76
2022/10/04 05:21:09;;;;;;;11.27;9.03;;;18.00;99.90;;;;;;5146293;27;20419;-72
2022/10/04 05:23:41;;;;;;;11.70;8.53;;;17.90;99.90;;;;;;5145741;27;20440;-72
2022/10/04 05:26:13;;;;;;;8.70;7.40;;;17.90;99.90;;;;;;5146391;27;20452;-72
2022/10/04 05:28:44;;;;;;;10.93;8.10;;;17.80;99.90;;;;;;5126121;27;20516;-68
2022/10/04 05:31:41;;;;;;;7.80;6.50;;;17.80;99.90;;;;;;5117224;27;20530;-68
2022/10/04 05:34:23;;;;;;;7.33;6.63;;;17.80;99.90;;;;;;5114548;27;20424;-68
2022/10/04 05:37:15;;;;;;;8.70;6.77;;;17.70;99.90;;;;;;5115824;27;20450;-71
2022/10/04 05:39:54;;;;;;;7.77;7.03;;;17.70;99.90;;;;;;5106033;27;20884;-71
2022/10/04 05:42:36;;;;;;;6.83;6.13;;;17.70;99.90;;;;;;5122820;27;20510;-72
2022/10/04 05:45:18;;;;;;;6.80;6.10;;;17.60;99.90;;;;;;5110423;27;20440;-67
2022/10/04 05:47:53;;;;;;;7.73;6.13;;;17.60;99.90;;;;;;5123204;27;20474;-67
2022/10/04 05:50:34;;;;;;;11.73;7.20;;;17.60;99.90;;;;;;5115006;27;21353;-70
2022/10/04 05:53:32;;;;;;;6.80;6.17;;;17.60;99.90;;;;;;5124569;27;20820;-69
2022/10/04 05:56:15;;;;;;;6.33;5.67;;;17.60;99.90;;;;;;5121295;27;20461;-69
2022/10/04 05:59:00;;;;;;;6.77;6.03;;;17.50;99.90;;;;;;5126887;27;20425;-68
2022/10/04 06:01:42;;;;;;;8.53;6.37;;;17.40;99.90;;;;;;5126300;27;20436;-67
2022/10/04 06:04:38;;;;;;;6.93;5.70;;;17.40;99.90;;;;;;5146426;27;20467;-67
2022/10/04 06:07:19;;;;;;;6.63;5.70;;;17.30;99.90;;;;;;5136408;27;20427;-67
2022/10/04 06:10:28;;;;;;;7.97;6.23;;;17.30;99.90;;;;;;5143578;27;20466;-67
2022/10/04 06:13:04;;;;;;;8.93;7.40;;;17.30;99.90;;;;;;5145775;27;20474;-67
2022/10/04 06:16:05;;;;;;;6.63;6.03;;;17.20;99.90;;;;;;5132551;27;20983;-67
2022/10/04 06:19:04;;;;;;;6.30;5.50;;;17.20;99.90;;;;;;5120808;27;20512;-68
2022/10/04 06:21:57;;;;;;;7.67;5.70;;;17.10;99.90;;;;;;5131849;27;20823;-68
2022/10/04 06:24:30;;;;;;;8.77;5.70;;;17.10;99.90;;;;;;5139022;27;20456;-69
2022/10/04 06:27:04;;;;;;;7.30;6.00;;;17.10;99.90;;;;;;5121165;27;20462;-68
2022/10/04 06:29:40;;;;;;;9.60;6.70;;;17.10;99.90;;;;;;5137277;27;20494;-68
2022/10/04 06:32:34;;;;;;;7.93;6.10;;;17.00;99.90;;;;;;5140912;27;20456;-69
2022/10/04 06:35:21;;;;;;;7.30;5.90;;;16.90;99.90;;;;;;5139307;27;20457;-68
2022/10/04 06:38:23;;;;;;;6.87;5.90;;;16.80;99.90;;;;;;5127274;27;20497;-69
2022/10/04 06:41:15;;;;;;;7.53;6.03;;;16.80;99.90;;;;;;5103043;27;20432;-69
2022/10/04 06:44:00;;;;;;;7.60;6.77;;;16.80;99.90;;;;;;5128662;27;20461;-68
2022/10/04 06:46:38;;;;;;;7.63;6.60;;;16.70;99.90;;;;;;5133684;27;20452;-68
2022/10/04 06:49:32;;;;;;;7.70;6.20;;;16.60;99.90;;;;;;5143519;27;20509;-69
2022/10/04 06:52:26;;;;;;;13.33;6.60;;;16.60;99.90;;;;;;5115566;27;20525;-68
2022/10/04 06:55:27;;;;;;;8.20;5.07;;;16.60;99.90;;;;;;5114032;27;21285;-68
2022/10/04 06:58:25;;;;;;;6.43;5.30;;;16.50;99.90;;;;;;5136463;27;20529;-68
2022/10/04 07:01:01;;;;;;;7.33;6.60;;;16.50;99.90;;;;;;5122787;27;20569;-68
2022/10/04 07:03:40;;;;;;;9.87;6.13;;;16.30;99.90;;;;;;5135834;27;20453;-69
2022/10/04 07:06:12;;;;;;;6.47;5.80;;;16.40;99.90;;;;;;5130330;27;20533;-69
2022/10/04 07:08:48;;;;;;;7.30;5.30;;;16.40;99.90;;;;;;5133176;27;20457;-69
2022/10/04 07:11:25;;;;;;;6.70;5.87;;;16.40;99.90;;;;;;5122328;27;20480;-68
2022/10/04 07:13:59;;;;;;;7.90;5.40;;;16.30;99.90;;;;;;5108611;27;20470;-68
2022/10/04 07:16:43;;;;;;;8.53;6.23;;;16.20;99.90;;;;;;5123027;27;20493;-69
2022/10/04 07:19:28;;;;;;;9.37;7.00;;;16.10;99.90;;;;;;5124070;27;20481;-69
2022/10/04 07:22:11;;;;;;;7.10;5.60;;;16.10;99.90;;;;;;5136116;27;20471;-69
2022/10/04 07:25:07;;;;;;;6.87;5.70;;;16.10;99.90;;;;;;5137124;27;20449;-69
2022/10/04 07:29:19;;;;;;;6.60;5.67;;;16.00;99.90;;;;;;5122181;27;20464;-68
2022/10/04 07:30:48;;;;;;;9.57;5.77;;;16.00;99.90;;;;;;5130767;27;20492;-69
2022/10/04 07:33:22;;;;;;;9.50;6.10;;;16.00;99.90;;;;;;5129791;27;21348;-69
2022/10/04 07:36:00;;;;;;;7.00;5.90;;;15.90;99.90;;;;;;5135261;27;20452;-68
2022/10/04 07:38:34;;;;;;;7.20;5.63;;;15.90;99.90;;;;;;5121212;27;20456;-68
2022/10/04 07:41:11;;;;;;;7.57;6.70;;;15.90;99.90;;;;;;5126703;27;20462;-68
2022/10/04 07:43:53;;;;;;;5.87;4.93;;;15.90;99.90;;;;;;5135894;27;20456;-68
2022/10/04 07:46:45;;;;;;;7.43;5.40;;;15.80;99.90;;;;;;5119953;27;20514;-68
2022/10/04 07:49:17;;;;;;;7.03;5.30;;;15.80;99.90;;;;;;5126565;27;20436;-69
2022/10/04 07:52:11;;;;;;;7.30;5.63;;;15.80;99.90;;;;;;5141699;27;20464;-69
2022/10/04 07:54:49;;;;;;;7.70;5.97;;;15.80;99.90;;;;;;5115093;28;20470;-69
2022/10/04 07:57:25;;;;;;;7.10;5.40;;;15.70;99.90;;;;;;5144365;27;20449;-69
2022/10/04 08:00:04;;;;;;;6.90;5.67;;;15.50;99.90;;;;;;5138752;27;20454;-68
2022/10/04 08:02:48;;;;;;;8.30;6.23;;;15.60;99.90;;;;;;5113840;28;20440;-68
2022/10/04 08:05:24;;;;;;;7.40;5.30;;;15.50;99.90;;;;;;5143933;27;20601;-69
2022/10/04 08:08:18;;;;;;;8.43;6.93;;;15.50;99.90;;;;;;5143879;27;20612;-69
2022/10/04 08:10:56;;;;;;;6.33;5.60;;;15.40;99.90;;;;;;5135210;27;20557;-69
2022/10/04 08:13:34;;;;;;;7.27;5.43;;;15.40;99.90;;;;;;5124484;28;20456;-69
2022/10/04 08:16:26;;;;;;;6.73;6.07;;;15.40;99.90;;;;;;5143735;27;20470;-69
2022/10/04 08:19:13;;;;;;;8.30;6.37;;;15.40;99.90;;;;;;5117967;27;20441;-69
2022/10/04 08:21:52;;;;;;;8.40;6.37;;;15.40;99.90;;;;;;5131172;27;20804;-69
2022/10/04 08:24:30;;;;;;;8.30;6.17;;;15.30;99.90;;;;;;5148587;27;20489;-69
2022/10/04 08:27:21;;;;;;;9.77;7.00;;;15.30;99.90;;;;;;5147734;27;20453;-69
2022/10/04 08:30:03;;;;;;;8.33;6.50;;;15.30;99.90;;;;;;5135018;27;20891;-68
2022/10/04 08:33:05;;;;;;;6.83;5.07;;;15.20;99.90;;;;;;5142363;27;20462;-68
2022/10/04 08:35:40;;;;;;;9.13;6.00;;;15.20;99.90;;;;;;5145263;27;20459;-68
2022/10/04 08:38:41;;;;;;;9.20;6.63;;;15.20;99.90;;;;;;5143779;27;20639;-68
2022/10/04 08:41:44;;;;;;;7.33;6.00;;;15.10;99.90;;;;;;5138399;27;20520;-68
2022/10/04 08:44:44;;;;;;;6.10;5.50;;;15.10;99.90;;;;;;5135697;27;20608;-68
2022/10/04 08:47:56;;;;;;;8.73;5.57;;;15.00;99.90;;;;;;5113761;27;20456;-68
2022/10/04 08:51:07;;;;;;;6.87;5.53;;;15.00;99.90;;;;;;5085048;28;20514;-68
2022/10/04 08:54:10;;;;;;;7.30;6.17;;;14.90;99.90;;;;;;5082584;28;20607;-68
2022/10/04 08:57:07;;;;;;;5.93;5.10;;;14.90;99.90;;;;;;5084624;28;20455;-68
2022/10/04 09:00:14;;;;;;;6.93;5.70;;;14.90;99.90;;;;;;5090110;28;20451;-68
2022/10/04 09:03:34;;;;;;;6.93;5.60;;;14.90;99.90;;;;;;5095041;28;20455;-69
2022/10/04 09:06:36;;;;;;;7.97;6.40;;;14.80;99.90;;;;;;5083191;28;20486;-68
2022/10/04 09:09:49;;;;;;;8.70;6.10;;;14.70;99.90;;;;;;5078415;28;20462;-68
2022/10/04 09:12:43;;;;;;;7.50;5.50;;;14.70;99.90;;;;;;5084353;28;20466;-68
2022/10/04 09:15:33;;;;;;;5.97;5.27;;;14.70;99.90;;;;;;5092411;28;20459;-68
2022/10/04 09:18:22;;;;;;;7.27;5.40;;;14.70;99.90;;;;;;5084141;28;20471;-68
2022/10/04 09:20:59;;;;;;;6.80;5.10;;;14.70;99.90;;;;;;5086111;28;20489;-69
2022/10/04 09:23:58;;;;;;;8.03;6.17;;;14.70;99.90;;;;;;5096464;28;20467;-69
2022/10/04 09:26:40;;;;;;;7.30;5.70;;;14.60;99.90;;;;;;5082937;27;20454;-69
2022/10/04 09:29:28;;;;;;;8.00;5.90;;;14.60;99.90;;;;;;5140364;27;20595;-68
2022/10/04 09:32:31;;;;;;;8.03;5.63;;;14.60;99.90;;;;;;5126847;27;20855;-68
2022/10/04 09:35:22;;;;;;;8.80;6.00;;;14.50;99.90;;;;;;5129055;27;20484;-68
2022/10/04 09:38:20;;;;;;;7.87;5.77;;;14.60;99.90;;;;;;5116798;27;20458;-68
2022/10/04 09:41:25;;;;;;;8.57;6.47;;;14.50;99.90;;;;;;5131083;27;20963;-68
2022/10/04 09:44:39;;;;;;;7.10;5.77;;;14.50;99.90;;;;;;5125825;27;20466;-68
2022/10/04 09:47:30;;;;;;;7.80;6.07;;;14.50;99.90;;;;;;5115722;27;20457;-68
2022/10/04 09:50:23;;;;;;;7.87;5.83;;;14.40;99.90;;;;;;5131903;27;20490;-68
2022/10/04 09:53:05;;;;;;;8.30;6.50;;;14.40;99.90;;;;;;5123123;27;20452;-68
2022/10/04 09:56:01;;;;;;;8.87;5.50;;;14.40;99.90;;;;;;5136605;27;20465;-68
2022/10/04 09:58:57;;;;;;;7.00;5.50;;;14.40;99.90;;;;;;5125196;27;20612;-68
2022/10/04 10:01:39;;;;;;;9.83;6.87;;;14.30;99.90;;;;;;5094598;28;20473;-69
2022/10/04 10:04:30;;;;;;;7.70;6.20;;;14.20;99.90;;;;;;5132602;27;20501;-69
2022/10/04 10:07:27;;;;;;;7.53;5.80;;;14.20;99.90;;;;;;5138528;27;20989;-68
2022/10/04 10:13:43;;;;;;;8.20;6.53;;;14.10;99.90;;;;;;5081738;28;20501;-68
2022/10/04 10:16:32;;;;;;;6.63;5.57;;;14.20;99.90;;;;;;5087778;28;20459;-68
2022/10/04 10:19:29;;;;;;;8.40;5.30;;;14.10;99.90;;;;;;5090360;28;20466;-68
2022/10/04 10:22:18;;;;;;;6.80;6.03;;;14.00;99.90;;;;;;5050600;28;20467;-68
2022/10/04 10:25:10;;;;;;;7.77;5.70;;;14.10;99.90;;;;;;5084486;28;20481;-68
2022/10/04 10:28:04;;;;;;;7.50;5.13;;;14.10;99.90;;;;;;5076779;28;20460;-68
2022/10/04 10:30:50;;;;;;;6.97;5.40;;;14.00;99.90;;;;;;5078360;28;20550;-67
2022/10/04 10:33:42;;;;;;;6.73;5.83;;;13.90;99.90;;;;;;5080895;28;20497;-68
2022/10/04 10:36:45;;;;;;;10.57;5.67;;;13.90;99.90;;;;;;5065777;28;20468;-68
2022/10/04 10:39:51;;;;;;;6.47;4.70;;;13.90;99.90;;;;;;5073790;28;20464;-68
2022/10/04 10:42:45;;;;;;;7.47;6.00;;;13.90;99.90;;;;;;5093525;28;20454;-68
2022/10/04 10:45:34;;;;;;;7.57;5.50;;;13.70;99.90;;;;;;5064701;28;21193;-68
2022/10/04 10:48:13;;;;;;;6.33;5.70;;;13.70;99.90;;;;;;5083569;28;20456;-67
2022/10/04 10:51:03;;;;;;;9.60;6.30;;;13.80;99.90;;;;;;5127274;27;20458;-68
2022/10/04 10:54:24;;;;;;;8.33;6.10;;;13.80;99.90;;;;;;5128767;27;20456;-68
2022/10/04 10:57:12;;;;;;;8.80;6.77;;;13.80;99.90;;;;;;5086415;28;20552;-68
2022/10/04 11:00:19;;;;;;;7.40;5.93;;;13.80;99.90;;;;;;5079992;28;20460;-68
2022/10/04 11:03:43;;;;;;;12.33;6.90;;;13.80;99.90;;;;;;5084611;28;20459;-68
2022/10/04 11:06:48;;;;;;;12.13;7.10;;;13.90;99.90;;;;;;5055239;28;20537;-68
2022/10/04 11:09:43;;;;;;;11.93;7.20;;;14.00;99.90;;;;;;5049697;28;20519;-68
2022/10/04 11:12:37;;;;;;;12.60;8.67;;;13.90;99.90;;;;;;5065798;28;20507;-68
2022/10/04 11:15:37;;;;;;;11.50;8.00;;;14.00;99.90;;;;;;5050443;28;20522;-68
2022/10/04 11:18:46;;;;;;;17.77;10.03;;;14.10;99.90;;;;;;5060189;28;20468;-68
2022/10/04 11:21:51;;;;;;;14.53;8.37;;;14.20;99.90;;;;;;5043483;28;20464;-68
2022/10/04 11:24:56;;;;;;;12.43;8.70;;;14.20;99.90;;;;;;5060609;28;20505;-68
2022/10/04 11:27:43;;;;;;;14.10;9.60;;;14.30;99.90;;;;;;5065866;28;20508;-68
2022/10/04 11:30:23;;;;;;;11.77;7.87;;;14.40;99.90;;;;;;5057358;28;20975;-68
2022/10/04 11:33:29;;;;;;;14.00;10.43;;;14.40;99.90;;;;;;5083702;28;20489;-68
2022/10/04 11:36:20;;;;;;;13.30;8.90;;;14.50;99.90;;;;;;5096997;28;20486;-68
2022/10/04 11:39:06;;;;;;;14.57;10.17;;;14.60;99.90;;;;;;5097650;28;20533;-68
2022/10/04 11:41:51;;;;;;;13.00;9.00;;;14.60;99.90;;;;;;5135766;27;20465;-68
2022/10/04 11:44:44;;;;;;;11.97;7.93;;;14.60;99.90;;;;;;5128311;27;20464;-68
2022/10/04 11:47:29;;;;;;;14.53;8.23;;;14.60;99.90;;;;;;5139043;27;20453;-68
2022/10/04 11:50:21;;;;;;;13.23;8.50;;;14.70;99.90;;;;;;5120401;27;20480;-68
2022/10/04 11:53:20;;;;;;;12.90;8.17;;;14.70;99.90;;;;;;5144129;27;20877;-69
2022/10/04 11:56:09;;;;;;;12.50;7.80;;;14.70;99.90;;;;;;5136299;27;20503;-68
2022/10/04 11:59:03;;;;;;;10.23;6.93;;;14.70;99.90;;;;;;5142277;27;20954;-69
2022/10/04 12:02:09;;;;;;;12.93;8.40;;;14.80;99.90;;;;;;5144061;27;20453;-68
2022/10/04 12:05:19;;;;;;;10.90;8.03;;;14.90;99.90;;;;;;5128800;27;20464;-69
2022/10/04 12:08:00;;;;;;;11.37;8.20;;;14.80;99.90;;;;;;5143920;27;20453;-68
2022/10/04 12:10:35;;;;;;;10.83;8.23;;;14.70;99.90;;;;;;5133458;27;20458;-69
2022/10/04 12:13:43;;;;;;;14.57;8.70;;;14.60;99.90;;;;;;5124321;28;20522;-69
2022/10/04 12:16:42;;;;;;;15.03;9.53;;;14.70;99.90;;;;;;5124774;28;20502;-69
2022/10/04 12:19:43;;;;;;;14.30;8.07;;;14.60;99.90;;;;;;5132087;28;20460;-69
2022/10/04 12:22:55;;;;;;;12.83;8.40;;;14.60;99.90;;;;;;5109376;28;20457;-69
2022/10/04 12:25:45;;;;;;;12.97;8.60;;;14.60;99.90;;;;;;5082365;28;20471;-69
2022/10/04 12:28:41;;;;;;;11.90;7.60;;;14.60;99.90;;;;;;5086006;28;20868;-69
2022/10/04 12:31:23;;;;;;;11.73;8.17;;;14.70;99.90;;;;;;5090456;28;20484;-69
2022/10/04 12:34:08;;;;;;;11.07;8.13;;;14.70;99.90;;;;;;5088501;28;20957;-69
2022/10/04 12:37:00;;;;;;;10.40;8.00;;;14.70;99.90;;;;;;5083251;28;20488;-69
2022/10/04 12:40:04;;;;;;;8.47;6.30;;;14.80;99.90;;;;;;5098618;28;20480;-68
2022/10/04 12:42:46;;;;;;;12.23;8.83;;;14.80;99.90;;;;;;5034063;28;20465;-68
2022/10/04 12:45:42;;;;;;;10.17;7.13;;;14.80;99.90;;;;;;5031275;28;20474;-68
2022/10/04 12:48:24;;;;;;;13.27;8.53;;;14.80;99.90;;;;;;5020190;28;20509;-68
2022/10/04 12:51:03;;;;;;;9.27;7.20;;;14.80;99.90;;;;;;5027205;28;20469;-69
2022/10/04 12:53:47;;;;;;;8.67;7.23;;;14.90;99.90;;;;;;5024110;28;20493;-69
2022/10/04 12:56:34;;;;;;;11.87;7.73;;;14.90;99.90;;;;;;5023142;28;20440;-69
2022/10/04 12:59:30;;;;;;;9.10;7.07;;;14.80;99.90;;;;;;5035271;28;20472;-69
2022/10/04 13:02:13;;;;;;;7.60;5.90;;;14.80;99.90;;;;;;5070492;28;20463;-69
2022/10/04 13:04:49;;;;;;;12.43;7.23;;;14.70;99.90;;;;;;5098851;28;20466;-69
2022/10/04 13:07:35;;;;;;;9.73;6.60;;;14.80;99.90;;;;;;5081834;28;20451;-69
2022/10/04 13:10:32;;;;;;;11.90;7.10;;;14.70;99.90;;;;;;5066096;28;20583;-69
2022/10/04 13:13:32;;;;;;;11.03;6.80;;;14.70;99.90;;;;;;5087308;28;20491;-69
2022/10/04 13:16:12;;;;;;;10.90;7.03;;;14.70;99.90;;;;;;5084846;28;20527;-69
2022/10/04 13:19:13;;;;;;;14.27;7.00;;;14.70;99.90;;;;;;5121676;27;20469;-69
2022/10/04 13:22:12;;;;;;;9.57;6.00;;;14.70;99.90;;;;;;5128994;27;20461;-68
2022/10/04 13:25:02;;;;;;;10.67;6.60;;;14.70;99.90;;;;;;5138138;27;20457;-69
2022/10/04 13:27:45;;;;;;;8.90;5.70;;;14.70;99.90;;;;;;5131477;27;20453;-69
2022/10/04 13:30:26;;;;;;;8.90;6.10;;;14.60;99.90;;;;;;5138514;27;20461;-68
2022/10/04 13:33:06;;;;;;;11.07;5.87;;;14.60;99.90;;;;;;5123666;27;20533;-69
2022/10/04 13:35:44;;;;;;;6.33;5.07;;;14.70;99.90;;;;;;5130283;27;20457;-69
2022/10/04 13:38:37;;;;;;;10.37;6.30;;;14.70;99.90;;;;;;5126634;27;20517;-69
2022/10/04 13:41:29;;;;;;;13.50;7.17;;;14.70;99.90;;;;;;5133800;27;20576;-69
2022/10/04 13:44:21;;;;;;;7.20;5.13;;;14.70;99.90;;;;;;5136074;27;20516;-69
2022/10/04 13:47:10;;;;;;;14.00;7.67;;;14.70;99.90;;;;;;5141927;27;20453;-69
2022/10/04 13:49:57;;;;;;;9.17;5.97;;;14.60;99.90;;;;;;5120389;27;20462;-69
2022/10/04 13:58:36;;;;;;;11.60;6.63;;;14.60;99.90;;;;;;5136635;27;20510;-70
2022/10/04 14:01:37;;;;;;;10.00;6.20;;;14.60;99.90;;;;;;5143628;27;20461;-69
2022/10/04 14:04:28;;;;;;;12.17;6.70;;;14.50;99.90;;;;;;5135052;27;20464;-69
2022/10/04 14:07:45;;;;;;;12.97;6.27;;;14.60;99.90;;;;;;5129627;27;20456;-69
2022/10/04 14:10:37;;;;;;;14.00;7.10;;;14.50;99.90;;;;;;5061806;28;20452;-69
2022/10/04 14:13:55;;;;;;;11.90;6.50;;;14.50;99.90;;;;;;5061493;28;20484;-69
2022/10/04 14:17:06;;;;;;;10.53;5.87;;;14.50;99.90;;;;;;5052824;28;20456;-68
2022/10/04 14:20:00;;;;;;;11.10;7.33;;;14.50;99.90;;;;;;5061200;28;20475;-69
2022/10/04 14:22:59;;;;;;;11.90;7.20;;;14.50;99.90;;;;;;5061525;28;20513;-69